sensor_id;sensor_type;location;lat;lon;timestamp;P1;durP1;ratioP1;P2;durP2;ratioP2
16450;SDS011;12243;42.708;23.310;2022-07-29T00:01:48;11.52;;;10.57;;
16450;SDS011;12243;42.708;23.310;2022-07-29T00:04:15;11.15;;;10.20;;
16450;SDS011;12243;42.708;23.310;2022-07-29T00:06:41;11.68;;;10.68;;
16450;SDS011;12243;42.708;23.310;2022-07-29T00:09:08;11.35;;;10.13;;
16450;SDS011;12243;42.708;23.310;2022-07-29T00:11:35;10.55;;;9.65;;
16450;SDS011;12243;42.708;23.310;2022-07-29T00:14:02;10.85;;;9.95;;
16450;SDS011;12243;42.708;23.310;2022-07-29T00:16:29;10.18;;;9.38;;
16450;SDS011;12243;42.708;23.310;2022-07-29T00:18:58;10.82;;;9.82;;
16450;SDS011;12243;42.708;23.310;2022-07-29T00:21:24;10.57;;;9.73;;
16450;SDS011;12243;42.708;23.310;2022-07-29T00:23:51;11.23;;;10.32;;
16450;SDS011;12243;42.708;23.310;2022-07-29T00:26:18;11.70;;;10.60;;
16450;SDS011;12243;42.708;23.310;2022-07-29T00:28:45;12.10;;;11.05;;
16450;SDS011;12243;42.708;23.310;2022-07-29T00:31:12;12.07;;;10.90;;
16450;SDS011;12243;42.708;23.310;2022-07-29T00:33:39;13.05;;;11.80;;
16450;SDS011;12243;42.708;23.310;2022-07-29T00:36:07;12.57;;;11.10;;
16450;SDS011;12243;42.708;23.310;2022-07-29T00:38:33;12.90;;;11.80;;
16450;SDS011;12243;42.708;23.310;2022-07-29T00:41:00;14.02;;;12.68;;
16450;SDS011;12243;42.708;23.310;2022-07-29T00:43:27;14.15;;;12.82;;
16450;SDS011;12243;42.708;23.310;2022-07-29T00:45:54;14.88;;;13.60;;
16450;SDS011;12243;42.708;23.310;2022-07-29T00:48:20;15.60;;;14.02;;
16450;SDS011;12243;42.708;23.310;2022-07-29T00:50:48;16.60;;;15.05;;
16450;SDS011;12243;42.708;23.310;2022-07-29T00:53:17;16.25;;;14.95;;
16450;SDS011;12243;42.708;23.310;2022-07-29T00:55:45;15.77;;;14.07;;
16450;SDS011;12243;42.708;23.310;2022-07-29T00:58:12;16.77;;;15.35;;
16450;SDS011;12243;42.708;23.310;2022-07-29T01:00:39;15.88;;;14.25;;
16450;SDS011;12243;42.708;23.310;2022-07-29T01:03:06;16.67;;;15.27;;
16450;SDS011;12243;42.708;23.310;2022-07-29T01:05:34;16.00;;;14.35;;
16450;SDS011;12243;42.708;23.310;2022-07-29T01:08:02;15.65;;;14.15;;
16450;SDS011;12243;42.708;23.310;2022-07-29T01:10:30;15.38;;;13.80;;
16450;SDS011;12243;42.708;23.310;2022-07-29T01:12:58;15.65;;;14.38;;
16450;SDS011;12243;42.708;23.310;2022-07-29T01:15:27;15.15;;;13.85;;
16450;SDS011;12243;42.708;23.310;2022-07-29T01:17:57;14.65;;;13.35;;
16450;SDS011;12243;42.708;23.310;2022-07-29T01:20:31;15.63;;;14.18;;
16450;SDS011;12243;42.708;23.310;2022-07-29T01:23:21;15.30;;;13.88;;
16450;SDS011;12243;42.708;23.310;2022-07-29T01:26:07;15.30;;;13.90;;
16450;SDS011;12243;42.708;23.310;2022-07-29T01:28:54;16.90;;;15.30;;
16450;SDS011;12243;42.708;23.310;2022-07-29T01:31:28;17.00;;;15.45;;
16450;SDS011;12243;42.708;23.310;2022-07-29T01:34:02;17.10;;;15.43;;
16450;SDS011;12243;42.708;23.310;2022-07-29T01:36:33;16.80;;;15.07;;
16450;SDS011;12243;42.708;23.310;2022-07-29T01:39:05;16.70;;;15.20;;
16450;SDS011;12243;42.708;23.310;2022-07-29T01:41:35;17.70;;;15.13;;
16450;SDS011;12243;42.708;23.310;2022-07-29T01:44:13;16.52;;;14.93;;
16450;SDS011;12243;42.708;23.310;2022-07-29T01:46:47;16.42;;;14.90;;
16450;SDS011;12243;42.708;23.310;2022-07-29T01:49:20;17.08;;;15.57;;
16450;SDS011;12243;42.708;23.310;2022-07-29T01:51:51;16.88;;;15.38;;
16450;SDS011;12243;42.708;23.310;2022-07-29T01:54:25;16.17;;;14.65;;
16450;SDS011;12243;42.708;23.310;2022-07-29T01:56:55;17.05;;;15.55;;
16450;SDS011;12243;42.708;23.310;2022-07-29T01:59:26;15.88;;;14.48;;
16450;SDS011;12243;42.708;23.310;2022-07-29T02:01:56;17.73;;;15.95;;
16450;SDS011;12243;42.708;23.310;2022-07-29T02:04:24;17.35;;;15.75;;
16450;SDS011;12243;42.708;23.310;2022-07-29T02:06:54;17.30;;;15.65;;
16450;SDS011;12243;42.708;23.310;2022-07-29T02:09:26;16.60;;;15.23;;
16450;SDS011;12243;42.708;23.310;2022-07-29T02:11:54;18.42;;;15.55;;
16450;SDS011;12243;42.708;23.310;2022-07-29T02:14:22;17.30;;;15.63;;
16450;SDS011;12243;42.708;23.310;2022-07-29T02:16:52;16.75;;;15.25;;
16450;SDS011;12243;42.708;23.310;2022-07-29T02:19:23;17.48;;;15.63;;
16450;SDS011;12243;42.708;23.310;2022-07-29T02:21:53;17.88;;;15.23;;
16450;SDS011;12243;42.708;23.310;2022-07-29T02:24:23;17.52;;;15.85;;
16450;SDS011;12243;42.708;23.310;2022-07-29T02:26:53;17.17;;;15.73;;
16450;SDS011;12243;42.708;23.310;2022-07-29T02:29:22;17.70;;;16.13;;
16450;SDS011;12243;42.708;23.310;2022-07-29T02:31:52;17.00;;;15.35;;
16450;SDS011;12243;42.708;23.310;2022-07-29T02:34:21;16.73;;;15.35;;
16450;SDS011;12243;42.708;23.310;2022-07-29T02:36:49;17.88;;;16.13;;
16450;SDS011;12243;42.708;23.310;2022-07-29T02:39:17;17.15;;;15.65;;
16450;SDS011;12243;42.708;23.310;2022-07-29T02:41:47;17.98;;;16.25;;
16450;SDS011;12243;42.708;23.310;2022-07-29T02:44:17;18.05;;;16.25;;
16450;SDS011;12243;42.708;23.310;2022-07-29T02:46:48;19.15;;;17.15;;
16450;SDS011;12243;42.708;23.310;2022-07-29T02:49:29;18.95;;;17.02;;
16450;SDS011;12243;42.708;23.310;2022-07-29T02:52:02;18.23;;;16.60;;
16450;SDS011;12243;42.708;23.310;2022-07-29T02:54:31;19.48;;;17.60;;
16450;SDS011;12243;42.708;23.310;2022-07-29T02:57:06;19.35;;;17.50;;
16450;SDS011;12243;42.708;23.310;2022-07-29T02:59:37;21.75;;;18.33;;
16450;SDS011;12243;42.708;23.310;2022-07-29T03:02:08;20.35;;;18.35;;
16450;SDS011;12243;42.708;23.310;2022-07-29T03:04:39;24.85;;;22.35;;
16450;SDS011;12243;42.708;23.310;2022-07-29T03:07:08;21.33;;;19.27;;
16450;SDS011;12243;42.708;23.310;2022-07-29T03:09:37;21.27;;;19.13;;
16450;SDS011;12243;42.708;23.310;2022-07-29T03:12:05;19.70;;;17.77;;
16450;SDS011;12243;42.708;23.310;2022-07-29T03:14:33;20.90;;;18.40;;
16450;SDS011;12243;42.708;23.310;2022-07-29T03:17:01;20.35;;;18.48;;
16450;SDS011;12243;42.708;23.310;2022-07-29T03:19:32;22.08;;;17.75;;
16450;SDS011;12243;42.708;23.310;2022-07-29T03:22:00;18.53;;;16.67;;
16450;SDS011;12243;42.708;23.310;2022-07-29T03:24:29;18.92;;;16.98;;
16450;SDS011;12243;42.708;23.310;2022-07-29T03:26:57;19.13;;;16.50;;
16450;SDS011;12243;42.708;23.310;2022-07-29T03:29:24;18.33;;;15.82;;
16450;SDS011;12243;42.708;23.310;2022-07-29T03:31:51;18.45;;;16.67;;
16450;SDS011;12243;42.708;23.310;2022-07-29T03:34:18;18.08;;;16.27;;
16450;SDS011;12243;42.708;23.310;2022-07-29T03:36:46;19.17;;;16.73;;
16450;SDS011;12243;42.708;23.310;2022-07-29T03:39:15;17.02;;;15.38;;
16450;SDS011;12243;42.708;23.310;2022-07-29T03:41:45;16.38;;;14.77;;
16450;SDS011;12243;42.708;23.310;2022-07-29T03:44:13;15.75;;;14.35;;
16450;SDS011;12243;42.708;23.310;2022-07-29T03:46:43;16.58;;;14.55;;
16450;SDS011;12243;42.708;23.310;2022-07-29T03:49:12;18.08;;;15.32;;
16450;SDS011;12243;42.708;23.310;2022-07-29T03:51:41;16.63;;;14.98;;
16450;SDS011;12243;42.708;23.310;2022-07-29T03:54:08;14.90;;;13.43;;
16450;SDS011;12243;42.708;23.310;2022-07-29T03:56:38;14.45;;;13.27;;
16450;SDS011;12243;42.708;23.310;2022-07-29T03:59:06;14.95;;;13.20;;
16450;SDS011;12243;42.708;23.310;2022-07-29T04:01:34;14.73;;;13.25;;
16450;SDS011;12243;42.708;23.310;2022-07-29T04:04:02;14.48;;;12.30;;
16450;SDS011;12243;42.708;23.310;2022-07-29T04:06:36;14.23;;;12.55;;
16450;SDS011;12243;42.708;23.310;2022-07-29T04:09:04;12.65;;;11.43;;
16450;SDS011;12243;42.708;23.310;2022-07-29T04:11:31;11.43;;;10.45;;
16450;SDS011;12243;42.708;23.310;2022-07-29T04:14:00;9.95;;;9.05;;
16450;SDS011;12243;42.708;23.310;2022-07-29T04:16:27;10.45;;;9.55;;
16450;SDS011;12243;42.708;23.310;2022-07-29T04:18:54;11.07;;;10.18;;
16450;SDS011;12243;42.708;23.310;2022-07-29T04:21:21;9.57;;;8.77;;
16450;SDS011;12243;42.708;23.310;2022-07-29T04:23:48;9.57;;;8.85;;
16450;SDS011;12243;42.708;23.310;2022-07-29T04:26:15;10.25;;;9.35;;
16450;SDS011;12243;42.708;23.310;2022-07-29T04:28:43;10.23;;;9.43;;
16450;SDS011;12243;42.708;23.310;2022-07-29T04:31:12;10.52;;;8.98;;
16450;SDS011;12243;42.708;23.310;2022-07-29T04:33:39;9.60;;;8.77;;
16450;SDS011;12243;42.708;23.310;2022-07-29T04:36:06;9.93;;;8.55;;
16450;SDS011;12243;42.708;23.310;2022-07-29T04:38:33;10.35;;;9.20;;
16450;SDS011;12243;42.708;23.310;2022-07-29T04:41:00;9.50;;;8.70;;
16450;SDS011;12243;42.708;23.310;2022-07-29T04:43:27;9.68;;;8.80;;
16450;SDS011;12243;42.708;23.310;2022-07-29T04:45:54;10.95;;;9.13;;
16450;SDS011;12243;42.708;23.310;2022-07-29T04:48:22;9.23;;;8.32;;
16450;SDS011;12243;42.708;23.310;2022-07-29T04:50:49;9.45;;;8.57;;
16450;SDS011;12243;42.708;23.310;2022-07-29T04:53:15;9.70;;;8.75;;
16450;SDS011;12243;42.708;23.310;2022-07-29T04:55:42;10.10;;;9.00;;
16450;SDS011;12243;42.708;23.310;2022-07-29T04:58:09;8.90;;;8.10;;
16450;SDS011;12243;42.708;23.310;2022-07-29T05:00:36;13.50;;;8.20;;
16450;SDS011;12243;42.708;23.310;2022-07-29T05:03:03;9.98;;;8.50;;
16450;SDS011;12243;42.708;23.310;2022-07-29T05:05:32;10.55;;;8.60;;
16450;SDS011;12243;42.708;23.310;2022-07-29T05:07:59;9.32;;;8.05;;
16450;SDS011;12243;42.708;23.310;2022-07-29T05:10:25;9.20;;;8.40;;
16450;SDS011;12243;42.708;23.310;2022-07-29T05:12:53;8.35;;;7.50;;
16450;SDS011;12243;42.708;23.310;2022-07-29T05:15:20;8.48;;;7.68;;
16450;SDS011;12243;42.708;23.310;2022-07-29T05:17:47;7.65;;;7.03;;
16450;SDS011;12243;42.708;23.310;2022-07-29T05:20:14;7.53;;;6.88;;
16450;SDS011;12243;42.708;23.310;2022-07-29T05:22:42;8.63;;;7.35;;
16450;SDS011;12243;42.708;23.310;2022-07-29T05:25:09;8.95;;;7.57;;
16450;SDS011;12243;42.708;23.310;2022-07-29T05:27:36;7.43;;;6.78;;
16450;SDS011;12243;42.708;23.310;2022-07-29T05:30:03;8.27;;;6.82;;
16450;SDS011;12243;42.708;23.310;2022-07-29T05:32:30;7.57;;;6.85;;
16450;SDS011;12243;42.708;23.310;2022-07-29T05:34:57;9.82;;;7.13;;
16450;SDS011;12243;42.708;23.310;2022-07-29T05:37:24;9.77;;;6.93;;
16450;SDS011;12243;42.708;23.310;2022-07-29T05:39:52;7.93;;;7.13;;
16450;SDS011;12243;42.708;23.310;2022-07-29T05:42:19;10.95;;;7.10;;
16450;SDS011;12243;42.708;23.310;2022-07-29T05:44:46;7.70;;;6.97;;
16450;SDS011;12243;42.708;23.310;2022-07-29T05:47:13;8.00;;;7.15;;
16450;SDS011;12243;42.708;23.310;2022-07-29T05:49:41;10.80;;;7.05;;
16450;SDS011;12243;42.708;23.310;2022-07-29T05:52:08;11.40;;;7.60;;
16450;SDS011;12243;42.708;23.310;2022-07-29T05:54:35;8.75;;;8.00;;
16450;SDS011;12243;42.708;23.310;2022-07-29T05:57:03;7.60;;;6.90;;
16450;SDS011;12243;42.708;23.310;2022-07-29T05:59:30;7.57;;;6.80;;
16450;SDS011;12243;42.708;23.310;2022-07-29T06:01:57;7.30;;;6.60;;
16450;SDS011;12243;42.708;23.310;2022-07-29T06:04:24;6.72;;;6.32;;
16450;SDS011;12243;42.708;23.310;2022-07-29T06:06:51;6.88;;;6.30;;
16450;SDS011;12243;42.708;23.310;2022-07-29T06:09:18;6.65;;;6.05;;
16450;SDS011;12243;42.708;23.310;2022-07-29T06:11:45;8.07;;;6.50;;
16450;SDS011;12243;42.708;23.310;2022-07-29T06:14:13;6.82;;;6.15;;
16450;SDS011;12243;42.708;23.310;2022-07-29T06:16:40;6.30;;;5.80;;
16450;SDS011;12243;42.708;23.310;2022-07-29T06:19:07;7.47;;;6.47;;
16450;SDS011;12243;42.708;23.310;2022-07-29T06:21:34;7.60;;;6.18;;
16450;SDS011;12243;42.708;23.310;2022-07-29T06:24:01;5.78;;;5.40;;
16450;SDS011;12243;42.708;23.310;2022-07-29T06:26:28;5.65;;;5.25;;
16450;SDS011;12243;42.708;23.310;2022-07-29T06:28:55;5.85;;;5.35;;
16450;SDS011;12243;42.708;23.310;2022-07-29T06:31:23;6.25;;;5.70;;
16450;SDS011;12243;42.708;23.310;2022-07-29T06:33:50;6.45;;;5.10;;
16450;SDS011;12243;42.708;23.310;2022-07-29T06:36:18;5.80;;;5.40;;
16450;SDS011;12243;42.708;23.310;2022-07-29T06:38:44;7.78;;;5.40;;
16450;SDS011;12243;42.708;23.310;2022-07-29T06:41:11;5.68;;;5.18;;
16450;SDS011;12243;42.708;23.310;2022-07-29T06:43:41;5.88;;;5.38;;
16450;SDS011;12243;42.708;23.310;2022-07-29T06:46:09;6.18;;;5.53;;
16450;SDS011;12243;42.708;23.310;2022-07-29T06:48:39;5.65;;;5.15;;
16450;SDS011;12243;42.708;23.310;2022-07-29T06:51:07;6.55;;;5.82;;
16450;SDS011;12243;42.708;23.310;2022-07-29T06:53:35;5.90;;;5.50;;
16450;SDS011;12243;42.708;23.310;2022-07-29T06:56:03;6.60;;;5.20;;
16450;SDS011;12243;42.708;23.310;2022-07-29T06:58:31;5.90;;;5.13;;
16450;SDS011;12243;42.708;23.310;2022-07-29T07:00:58;5.68;;;5.28;;
16450;SDS011;12243;42.708;23.310;2022-07-29T07:03:28;6.90;;;4.97;;
16450;SDS011;12243;42.708;23.310;2022-07-29T07:05:56;4.93;;;4.63;;
16450;SDS011;12243;42.708;23.310;2022-07-29T07:08:23;5.03;;;4.53;;
16450;SDS011;12243;42.708;23.310;2022-07-29T07:10:50;5.32;;;4.88;;
16450;SDS011;12243;42.708;23.310;2022-07-29T07:13:18;4.75;;;4.47;;
16450;SDS011;12243;42.708;23.310;2022-07-29T07:15:45;4.30;;;4.00;;
16450;SDS011;12243;42.708;23.310;2022-07-29T07:18:13;7.50;;;4.00;;
16450;SDS011;12243;42.708;23.310;2022-07-29T07:20:41;4.30;;;4.10;;
16450;SDS011;12243;42.708;23.310;2022-07-29T07:23:09;5.28;;;3.90;;
16450;SDS011;12243;42.708;23.310;2022-07-29T07:25:36;5.32;;;4.15;;
16450;SDS011;12243;42.708;23.310;2022-07-29T07:28:03;4.50;;;4.10;;
16450;SDS011;12243;42.708;23.310;2022-07-29T07:30:30;5.95;;;4.43;;
16450;SDS011;12243;42.708;23.310;2022-07-29T07:33:00;4.82;;;4.03;;
16450;SDS011;12243;42.708;23.310;2022-07-29T07:35:27;5.18;;;3.90;;
16450;SDS011;12243;42.708;23.310;2022-07-29T07:37:54;4.05;;;3.83;;
16450;SDS011;12243;42.708;23.310;2022-07-29T07:40:22;4.22;;;3.92;;
16450;SDS011;12243;42.708;23.310;2022-07-29T07:42:49;4.20;;;3.90;;
16450;SDS011;12243;42.708;23.310;2022-07-29T07:45:16;4.00;;;3.70;;
16450;SDS011;12243;42.708;23.310;2022-07-29T07:47:43;4.53;;;4.20;;
16450;SDS011;12243;42.708;23.310;2022-07-29T07:50:11;4.43;;;3.83;;
16450;SDS011;12243;42.708;23.310;2022-07-29T07:52:45;4.13;;;3.83;;
16450;SDS011;12243;42.708;23.310;2022-07-29T07:55:13;4.35;;;4.05;;
16450;SDS011;12243;42.708;23.310;2022-07-29T07:57:41;4.30;;;4.00;;
16450;SDS011;12243;42.708;23.310;2022-07-29T08:00:08;4.90;;;4.40;;
16450;SDS011;12243;42.708;23.310;2022-07-29T08:02:39;9.93;;;4.25;;
16450;SDS011;12243;42.708;23.310;2022-07-29T08:05:08;5.93;;;4.70;;
16450;SDS011;12243;42.708;23.310;2022-07-29T08:07:35;4.50;;;4.10;;
16450;SDS011;12243;42.708;23.310;2022-07-29T08:10:03;5.40;;;4.47;;
16450;SDS011;12243;42.708;23.310;2022-07-29T08:12:30;4.15;;;3.85;;
16450;SDS011;12243;42.708;23.310;2022-07-29T08:14:58;9.43;;;3.85;;
16450;SDS011;12243;42.708;23.310;2022-07-29T08:17:25;8.32;;;4.60;;
16450;SDS011;12243;42.708;23.310;2022-07-29T08:19:53;4.30;;;3.97;;
16450;SDS011;12243;42.708;23.310;2022-07-29T08:22:20;4.93;;;4.05;;
16450;SDS011;12243;42.708;23.310;2022-07-29T08:24:47;6.75;;;4.35;;
16450;SDS011;12243;42.708;23.310;2022-07-29T08:27:19;4.20;;;3.75;;
16450;SDS011;12243;42.708;23.310;2022-07-29T08:29:46;6.05;;;4.30;;
16450;SDS011;12243;42.708;23.310;2022-07-29T08:32:15;4.45;;;3.95;;
16450;SDS011;12243;42.708;23.310;2022-07-29T08:34:42;4.38;;;4.13;;
16450;SDS011;12243;42.708;23.310;2022-07-29T08:37:11;4.07;;;3.88;;
16450;SDS011;12243;42.708;23.310;2022-07-29T08:39:38;4.43;;;3.90;;
16450;SDS011;12243;42.708;23.310;2022-07-29T08:42:06;4.30;;;3.58;;
16450;SDS011;12243;42.708;23.310;2022-07-29T08:44:33;3.60;;;3.30;;
16450;SDS011;12243;42.708;23.310;2022-07-29T08:47:00;4.55;;;3.90;;
16450;SDS011;12243;42.708;23.310;2022-07-29T08:49:29;3.70;;;3.50;;
16450;SDS011;12243;42.708;23.310;2022-07-29T08:51:56;3.65;;;3.40;;
16450;SDS011;12243;42.708;23.310;2022-07-29T08:54:23;3.60;;;3.40;;
16450;SDS011;12243;42.708;23.310;2022-07-29T08:56:51;4.18;;;3.72;;
16450;SDS011;12243;42.708;23.310;2022-07-29T08:59:19;3.95;;;3.65;;
16450;SDS011;12243;42.708;23.310;2022-07-29T09:01:47;4.47;;;3.67;;
16450;SDS011;12243;42.708;23.310;2022-07-29T09:04:14;5.78;;;3.50;;
16450;SDS011;12243;42.708;23.310;2022-07-29T09:06:45;5.80;;;3.38;;
16450;SDS011;12243;42.708;23.310;2022-07-29T09:09:14;3.63;;;3.42;;
16450;SDS011;12243;42.708;23.310;2022-07-29T09:11:41;4.05;;;3.53;;
16450;SDS011;12243;42.708;23.310;2022-07-29T09:14:10;4.07;;;3.75;;
16450;SDS011;12243;42.708;23.310;2022-07-29T09:16:45;3.92;;;3.70;;
16450;SDS011;12243;42.708;23.310;2022-07-29T09:19:20;3.70;;;3.50;;
16450;SDS011;12243;42.708;23.310;2022-07-29T09:21:50;8.30;;;3.95;;
16450;SDS011;12243;42.708;23.310;2022-07-29T09:24:28;3.90;;;3.50;;
16450;SDS011;12243;42.708;23.310;2022-07-29T09:27:08;4.32;;;4.03;;
16450;SDS011;12243;42.708;23.310;2022-07-29T09:29:45;4.82;;;4.10;;
16450;SDS011;12243;42.708;23.310;2022-07-29T09:32:12;4.60;;;3.80;;
16450;SDS011;12243;42.708;23.310;2022-07-29T09:34:39;3.70;;;3.50;;
16450;SDS011;12243;42.708;23.310;2022-07-29T09:37:07;3.95;;;3.50;;
16450;SDS011;12243;42.708;23.310;2022-07-29T09:39:35;4.00;;;3.70;;
16450;SDS011;12243;42.708;23.310;2022-07-29T09:42:09;4.15;;;3.50;;
16450;SDS011;12243;42.708;23.310;2022-07-29T09:44:43;3.80;;;3.50;;
16450;SDS011;12243;42.708;23.310;2022-07-29T09:47:12;6.07;;;3.80;;
16450;SDS011;12243;42.708;23.310;2022-07-29T09:49:52;3.88;;;3.58;;
16450;SDS011;12243;42.708;23.310;2022-07-29T09:52:24;4.00;;;3.80;;
16450;SDS011;12243;42.708;23.310;2022-07-29T09:54:51;4.93;;;3.88;;
16450;SDS011;12243;42.708;23.310;2022-07-29T09:57:23;4.25;;;3.95;;
16450;SDS011;12243;42.708;23.310;2022-07-29T09:59:55;3.92;;;3.70;;
16450;SDS011;12243;42.708;23.310;2022-07-29T10:02:26;6.80;;;4.20;;
16450;SDS011;12243;42.708;23.310;2022-07-29T10:04:54;3.83;;;3.63;;
16450;SDS011;12243;42.708;23.310;2022-07-29T10:07:21;3.75;;;3.50;;
16450;SDS011;12243;42.708;23.310;2022-07-29T10:09:52;5.13;;;3.75;;
16450;SDS011;12243;42.708;23.310;2022-07-29T10:12:20;3.83;;;3.55;;
16450;SDS011;12243;42.708;23.310;2022-07-29T10:14:48;3.97;;;3.60;;
16450;SDS011;12243;42.708;23.310;2022-07-29T10:17:16;3.67;;;3.47;;
16450;SDS011;12243;42.708;23.310;2022-07-29T10:19:43;3.55;;;3.35;;
16450;SDS011;12243;42.708;23.310;2022-07-29T10:22:10;3.80;;;3.50;;
16450;SDS011;12243;42.708;23.310;2022-07-29T10:24:39;3.53;;;3.33;;
16450;SDS011;12243;42.708;23.310;2022-07-29T10:27:07;6.22;;;3.53;;
16450;SDS011;12243;42.708;23.310;2022-07-29T10:29:34;4.30;;;4.03;;
16450;SDS011;12243;42.708;23.310;2022-07-29T10:32:21;4.53;;;3.42;;
16450;SDS011;12243;42.708;23.310;2022-07-29T10:35:01;3.47;;;3.22;;
16450;SDS011;12243;42.708;23.310;2022-07-29T10:37:43;6.00;;;3.40;;
16450;SDS011;12243;42.708;23.310;2022-07-29T10:40:25;3.55;;;3.35;;
16450;SDS011;12243;42.708;23.310;2022-07-29T10:43:19;3.85;;;3.65;;
16450;SDS011;12243;42.708;23.310;2022-07-29T10:45:49;5.10;;;4.00;;
16450;SDS011;12243;42.708;23.310;2022-07-29T10:48:22;3.72;;;3.42;;
16450;SDS011;12243;42.708;23.310;2022-07-29T10:50:53;3.42;;;3.22;;
16450;SDS011;12243;42.708;23.310;2022-07-29T10:53:45;4.05;;;3.85;;
16450;SDS011;12243;42.708;23.310;2022-07-29T10:56:24;4.30;;;3.95;;
16450;SDS011;12243;42.708;23.310;2022-07-29T11:01:51;5.25;;;3.83;;
16450;SDS011;12243;42.708;23.310;2022-07-29T11:07:20;3.72;;;3.53;;
16450;SDS011;12243;42.708;23.310;2022-07-29T11:12:50;5.43;;;3.65;;
16450;SDS011;12243;42.708;23.310;2022-07-29T11:15:19;4.18;;;3.88;;
16450;SDS011;12243;42.708;23.310;2022-07-29T11:20:33;4.38;;;4.07;;
16450;SDS011;12243;42.708;23.310;2022-07-29T11:23:17;4.97;;;3.70;;
16450;SDS011;12243;42.708;23.310;2022-07-29T11:25:45;5.82;;;4.35;;
16450;SDS011;12243;42.708;23.310;2022-07-29T11:28:34;4.60;;;4.20;;
16450;SDS011;12243;42.708;23.310;2022-07-29T11:31:04;9.25;;;3.85;;
16450;SDS011;12243;42.708;23.310;2022-07-29T11:33:34;3.70;;;3.58;;
16450;SDS011;12243;42.708;23.310;2022-07-29T11:36:08;3.85;;;3.50;;
16450;SDS011;12243;42.708;23.310;2022-07-29T11:38:36;5.53;;;4.32;;
16450;SDS011;12243;42.708;23.310;2022-07-29T11:41:23;4.43;;;4.05;;
16450;SDS011;12243;42.708;23.310;2022-07-29T11:43:52;4.07;;;3.78;;
16450;SDS011;12243;42.708;23.310;2022-07-29T11:49:18;4.35;;;3.90;;
16450;SDS011;12243;42.708;23.310;2022-07-29T11:51:49;4.97;;;4.28;;
16450;SDS011;12243;42.708;23.310;2022-07-29T11:54:21;4.85;;;4.55;;
16450;SDS011;12243;42.708;23.310;2022-07-29T11:56:51;4.38;;;4.00;;
16450;SDS011;12243;42.708;23.310;2022-07-29T11:59:20;4.55;;;4.25;;
16450;SDS011;12243;42.708;23.310;2022-07-29T12:01:54;5.15;;;4.63;;
16450;SDS011;12243;42.708;23.310;2022-07-29T12:04:22;6.85;;;4.90;;
16450;SDS011;12243;42.708;23.310;2022-07-29T12:06:49;4.20;;;4.00;;
16450;SDS011;12243;42.708;23.310;2022-07-29T12:09:17;4.65;;;4.35;;
16450;SDS011;12243;42.708;23.310;2022-07-29T12:11:45;4.63;;;4.28;;
16450;SDS011;12243;42.708;23.310;2022-07-29T12:14:25;4.63;;;4.20;;
16450;SDS011;12243;42.708;23.310;2022-07-29T12:16:53;4.65;;;4.30;;
16450;SDS011;12243;42.708;23.310;2022-07-29T12:19:20;4.57;;;4.30;;
16450;SDS011;12243;42.708;23.310;2022-07-29T12:21:48;4.97;;;4.65;;
16450;SDS011;12243;42.708;23.310;2022-07-29T12:24:17;4.78;;;4.53;;
16450;SDS011;12243;42.708;23.310;2022-07-29T12:26:51;5.05;;;4.70;;
16450;SDS011;12243;42.708;23.310;2022-07-29T12:29:19;4.60;;;4.40;;
16450;SDS011;12243;42.708;23.310;2022-07-29T12:31:50;4.80;;;4.55;;
16450;SDS011;12243;42.708;23.310;2022-07-29T12:34:19;4.82;;;4.57;;
16450;SDS011;12243;42.708;23.310;2022-07-29T12:36:48;5.15;;;4.60;;
16450;SDS011;12243;42.708;23.310;2022-07-29T12:39:15;5.57;;;5.03;;
16450;SDS011;12243;42.708;23.310;2022-07-29T12:41:43;5.15;;;4.75;;
16450;SDS011;12243;42.708;23.310;2022-07-29T12:44:10;5.43;;;5.03;;
16450;SDS011;12243;42.708;23.310;2022-07-29T12:46:37;5.38;;;5.07;;
16450;SDS011;12243;42.708;23.310;2022-07-29T12:49:06;5.85;;;4.90;;
16450;SDS011;12243;42.708;23.310;2022-07-29T12:51:36;6.82;;;5.85;;
16450;SDS011;12243;42.708;23.310;2022-07-29T12:54:04;5.18;;;4.88;;
16450;SDS011;12243;42.708;23.310;2022-07-29T12:56:33;5.22;;;4.80;;
16450;SDS011;12243;42.708;23.310;2022-07-29T12:59:00;5.40;;;5.10;;
16450;SDS011;12243;42.708;23.310;2022-07-29T13:01:38;7.80;;;5.65;;
16450;SDS011;12243;42.708;23.310;2022-07-29T13:04:06;5.38;;;5.00;;
16450;SDS011;12243;42.708;23.310;2022-07-29T13:06:34;5.60;;;5.30;;
16450;SDS011;12243;42.708;23.310;2022-07-29T13:09:04;5.80;;;5.30;;
16450;SDS011;12243;42.708;23.310;2022-07-29T13:11:36;6.95;;;5.75;;
16450;SDS011;12243;42.708;23.310;2022-07-29T13:14:05;8.15;;;5.53;;
16450;SDS011;12243;42.708;23.310;2022-07-29T13:16:33;6.18;;;5.68;;
16450;SDS011;12243;42.708;23.310;2022-07-29T13:19:05;6.18;;;5.40;;
16450;SDS011;12243;42.708;23.310;2022-07-29T13:21:34;5.35;;;4.90;;
16450;SDS011;12243;42.708;23.310;2022-07-29T13:24:02;5.47;;;5.07;;
16450;SDS011;12243;42.708;23.310;2022-07-29T13:26:29;5.45;;;5.00;;
16450;SDS011;12243;42.708;23.310;2022-07-29T13:28:56;5.45;;;5.10;;
16450;SDS011;12243;42.708;23.310;2022-07-29T13:31:22;5.60;;;5.13;;
16450;SDS011;12243;42.708;23.310;2022-07-29T13:33:49;5.90;;;5.50;;
16450;SDS011;12243;42.708;23.310;2022-07-29T13:36:18;6.18;;;5.70;;
16450;SDS011;12243;42.708;23.310;2022-07-29T13:38:45;5.40;;;4.90;;
16450;SDS011;12243;42.708;23.310;2022-07-29T13:41:12;5.97;;;5.50;;
16450;SDS011;12243;42.708;23.310;2022-07-29T13:43:39;6.13;;;5.25;;
16450;SDS011;12243;42.708;23.310;2022-07-29T13:46:06;5.43;;;5.13;;
16450;SDS011;12243;42.708;23.310;2022-07-29T13:48:33;5.80;;;5.38;;
16450;SDS011;12243;42.708;23.310;2022-07-29T13:51:00;5.20;;;4.85;;
16450;SDS011;12243;42.708;23.310;2022-07-29T13:53:28;6.03;;;5.50;;
16450;SDS011;12243;42.708;23.310;2022-07-29T13:55:55;5.63;;;5.32;;
16450;SDS011;12243;42.708;23.310;2022-07-29T13:58:22;6.43;;;5.63;;
16450;SDS011;12243;42.708;23.310;2022-07-29T14:00:49;6.63;;;4.93;;
16450;SDS011;12243;42.708;23.310;2022-07-29T14:03:16;6.03;;;5.45;;
16450;SDS011;12243;42.708;23.310;2022-07-29T14:05:43;6.03;;;5.50;;
16450;SDS011;12243;42.708;23.310;2022-07-29T14:08:10;5.90;;;5.50;;
16450;SDS011;12243;42.708;23.310;2022-07-29T14:10:38;7.65;;;5.70;;
16450;SDS011;12243;42.708;23.310;2022-07-29T14:13:05;5.43;;;5.10;;
16450;SDS011;12243;42.708;23.310;2022-07-29T14:15:32;5.43;;;5.10;;
16450;SDS011;12243;42.708;23.310;2022-07-29T14:17:59;5.70;;;5.30;;
16450;SDS011;12243;42.708;23.310;2022-07-29T14:20:26;5.65;;;5.32;;
16450;SDS011;12243;42.708;23.310;2022-07-29T14:22:54;5.75;;;5.32;;
16450;SDS011;12243;42.708;23.310;2022-07-29T14:25:21;6.80;;;5.28;;
16450;SDS011;12243;42.708;23.310;2022-07-29T14:27:50;6.35;;;5.80;;
16450;SDS011;12243;42.708;23.310;2022-07-29T14:30:18;5.35;;;5.03;;
16450;SDS011;12243;42.708;23.310;2022-07-29T14:32:45;5.80;;;5.28;;
16450;SDS011;12243;42.708;23.310;2022-07-29T14:35:12;5.35;;;5.05;;
16450;SDS011;12243;42.708;23.310;2022-07-29T14:37:39;6.05;;;5.53;;
16450;SDS011;12243;42.708;23.310;2022-07-29T14:40:06;6.93;;;6.25;;
16450;SDS011;12243;42.708;23.310;2022-07-29T14:42:34;5.93;;;5.55;;
16450;SDS011;12243;42.708;23.310;2022-07-29T14:45:02;5.35;;;4.85;;
16450;SDS011;12243;42.708;23.310;2022-07-29T14:47:30;5.80;;;5.40;;
16450;SDS011;12243;42.708;23.310;2022-07-29T14:49:57;5.38;;;5.07;;
16450;SDS011;12243;42.708;23.310;2022-07-29T14:52:24;6.30;;;5.80;;